logo
Search for airport 
image banner adimage banner adimage banner ad
image banner ad

SWFQ - Fazenda Alvorada

Located in Porto Nacional, Brazil

ICAO - SWFQ, IATA -

Data provided by Airmate  

General information

Coordinates: S10°24'1" W48°40'2"
Elevation is 941 feet MSL.
Magnetic variation is -21° East
View others Airports in Tocatins

Operational data

Special qualification required
Current time UTC:
Current local time:
METAR: SBPJ 140500Z 11003KT 9999 FEW009 BKN013 24/23 Q1011
TAF: TAF SBPJ 140315Z 1406/1506 05005KT 9999 SCT020 FEW030TCU TN25/1408Z TX29/1415Z TEMPO 1406/1409 3500 TSRA BKN013 FEW030CB BECMG 1410/1413 25005KT SCT015 BECMG 1414/1416 33007KT BKN020 FEW030TCU TEMPO 1418/1506 09007KT 4000 TSRA BKN015 FEW030CB RMK PHN
View NOTAMs / SUP AIP / TFR affecting this airport [VIEW]
Communications frequencies: [VIEW]

Runways:

RWY identifierQFULength (ft)Width (ft)SurfaceLDA (ft)
03590698GRAVEL
21590698GRAVEL

Airport contact information

Address: Porto Nacional Brazil

Satellite view of SWFQ